sensor_id;sensor_type;location;lat;lon;timestamp;P1;durP1;ratioP1;P2;durP2;ratioP2
77864;SDS011;67061;48.524;9.040;2024-03-02T00:01:34;11.70;;;7.10;;
77864;SDS011;67061;48.524;9.040;2024-03-02T00:04:04;11.73;;;6.63;;
77864;SDS011;67061;48.524;9.040;2024-03-02T00:06:32;10.30;;;6.15;;
77864;SDS011;67061;48.524;9.040;2024-03-02T00:08:59;11.75;;;6.75;;
77864;SDS011;67061;48.524;9.040;2024-03-02T00:11:26;13.65;;;7.25;;
77864;SDS011;67061;48.524;9.040;2024-03-02T00:13:53;9.77;;;6.63;;
77864;SDS011;67061;48.524;9.040;2024-03-02T00:16:20;11.13;;;6.80;;
77864;SDS011;67061;48.524;9.040;2024-03-02T00:18:49;10.30;;;7.32;;
77864;SDS011;67061;48.524;9.040;2024-03-02T00:21:17;13.55;;;7.20;;
77864;SDS011;67061;48.524;9.040;2024-03-02T00:23:46;10.35;;;6.45;;
77864;SDS011;67061;48.524;9.040;2024-03-02T00:26:17;10.93;;;6.90;;
77864;SDS011;67061;48.524;9.040;2024-03-02T00:28:44;11.27;;;7.07;;
77864;SDS011;67061;48.524;9.040;2024-03-02T00:31:11;12.45;;;7.35;;
77864;SDS011;67061;48.524;9.040;2024-03-02T00:33:40;11.00;;;7.07;;
77864;SDS011;67061;48.524;9.040;2024-03-02T00:36:08;11.63;;;7.60;;
77864;SDS011;67061;48.524;9.040;2024-03-02T00:38:42;11.40;;;7.20;;
77864;SDS011;67061;48.524;9.040;2024-03-02T00:41:15;12.55;;;7.13;;
77864;SDS011;67061;48.524;9.040;2024-03-02T00:43:45;13.77;;;7.28;;
77864;SDS011;67061;48.524;9.040;2024-03-02T00:46:18;10.95;;;6.53;;
77864;SDS011;67061;48.524;9.040;2024-03-02T00:48:51;12.32;;;6.35;;
77864;SDS011;67061;48.524;9.040;2024-03-02T00:51:20;15.80;;;6.82;;
77864;SDS011;67061;48.524;9.040;2024-03-02T00:53:49;11.65;;;6.65;;
77864;SDS011;67061;48.524;9.040;2024-03-02T00:56:16;12.68;;;7.43;;
77864;SDS011;67061;48.524;9.040;2024-03-02T00:58:43;12.27;;;7.45;;
77864;SDS011;67061;48.524;9.040;2024-03-02T01:01:10;10.13;;;6.55;;
77864;SDS011;67061;48.524;9.040;2024-03-02T01:03:37;11.25;;;7.18;;
77864;SDS011;67061;48.524;9.040;2024-03-02T01:06:04;12.77;;;7.72;;
77864;SDS011;67061;48.524;9.040;2024-03-02T01:08:32;12.57;;;7.32;;
77864;SDS011;67061;48.524;9.040;2024-03-02T01:11:01;11.02;;;6.78;;
77864;SDS011;67061;48.524;9.040;2024-03-02T01:13:28;12.90;;;6.60;;
77864;SDS011;67061;48.524;9.040;2024-03-02T01:15:55;8.50;;;5.57;;
77864;SDS011;67061;48.524;9.040;2024-03-02T01:18:22;11.07;;;6.88;;
77864;SDS011;67061;48.524;9.040;2024-03-02T01:20:50;12.50;;;7.25;;
77864;SDS011;67061;48.524;9.040;2024-03-02T01:23:17;11.55;;;7.53;;
77864;SDS011;67061;48.524;9.040;2024-03-02T01:25:45;10.77;;;6.70;;
77864;SDS011;67061;48.524;9.040;2024-03-02T01:28:14;10.68;;;6.65;;
77864;SDS011;67061;48.524;9.040;2024-03-02T01:30:41;10.32;;;6.68;;
77864;SDS011;67061;48.524;9.040;2024-03-02T01:33:08;11.35;;;7.45;;
77864;SDS011;67061;48.524;9.040;2024-03-02T01:35:35;10.63;;;6.63;;
77864;SDS011;67061;48.524;9.040;2024-03-02T01:38:03;11.63;;;6.93;;
77864;SDS011;67061;48.524;9.040;2024-03-02T01:40:31;11.13;;;7.00;;
77864;SDS011;67061;48.524;9.040;2024-03-02T01:42:58;10.43;;;6.53;;
77864;SDS011;67061;48.524;9.040;2024-03-02T01:45:26;12.52;;;7.43;;
77864;SDS011;67061;48.524;9.040;2024-03-02T01:47:53;13.30;;;7.55;;
77864;SDS011;67061;48.524;9.040;2024-03-02T01:50:27;9.77;;;6.35;;
77864;SDS011;67061;48.524;9.040;2024-03-02T01:52:54;10.68;;;6.60;;
77864;SDS011;67061;48.524;9.040;2024-03-02T01:55:22;12.20;;;7.07;;
77864;SDS011;67061;48.524;9.040;2024-03-02T01:57:49;10.65;;;7.00;;
77864;SDS011;67061;48.524;9.040;2024-03-02T02:00:17;12.77;;;6.93;;
77864;SDS011;67061;48.524;9.040;2024-03-02T02:02:46;11.00;;;6.88;;
77864;SDS011;67061;48.524;9.040;2024-03-02T02:05:14;11.43;;;6.95;;
77864;SDS011;67061;48.524;9.040;2024-03-02T02:07:41;11.05;;;7.40;;
77864;SDS011;67061;48.524;9.040;2024-03-02T02:10:08;12.10;;;6.82;;
77864;SDS011;67061;48.524;9.040;2024-03-02T02:12:36;11.48;;;6.47;;
77864;SDS011;67061;48.524;9.040;2024-03-02T02:15:03;12.98;;;7.55;;
77864;SDS011;67061;48.524;9.040;2024-03-02T02:17:48;11.13;;;6.80;;
77864;SDS011;67061;48.524;9.040;2024-03-02T02:20:15;11.65;;;6.82;;
77864;SDS011;67061;48.524;9.040;2024-03-02T02:22:53;11.23;;;6.38;;
77864;SDS011;67061;48.524;9.040;2024-03-02T02:25:24;11.60;;;6.88;;
77864;SDS011;67061;48.524;9.040;2024-03-02T02:27:51;11.65;;;7.07;;
77864;SDS011;67061;48.524;9.040;2024-03-02T02:30:18;10.88;;;6.50;;
77864;SDS011;67061;48.524;9.040;2024-03-02T02:32:47;10.48;;;6.57;;
77864;SDS011;67061;48.524;9.040;2024-03-02T02:35:14;11.48;;;7.07;;
77864;SDS011;67061;48.524;9.040;2024-03-02T02:37:41;11.90;;;7.28;;
77864;SDS011;67061;48.524;9.040;2024-03-02T02:40:11;12.50;;;6.70;;
77864;SDS011;67061;48.524;9.040;2024-03-02T02:42:38;11.98;;;6.97;;
77864;SDS011;67061;48.524;9.040;2024-03-02T02:45:06;10.65;;;6.55;;
77864;SDS011;67061;48.524;9.040;2024-03-02T02:47:33;11.48;;;6.75;;
77864;SDS011;67061;48.524;9.040;2024-03-02T02:50:00;11.43;;;6.47;;
77864;SDS011;67061;48.524;9.040;2024-03-02T02:52:30;10.25;;;6.45;;
77864;SDS011;67061;48.524;9.040;2024-03-02T02:55:00;11.23;;;6.45;;
77864;SDS011;67061;48.524;9.040;2024-03-02T02:57:29;12.38;;;7.53;;
77864;SDS011;67061;48.524;9.040;2024-03-02T03:00:00;11.30;;;6.28;;
77864;SDS011;67061;48.524;9.040;2024-03-02T03:02:30;11.35;;;6.88;;
77864;SDS011;67061;48.524;9.040;2024-03-02T03:04:57;12.27;;;6.88;;
77864;SDS011;67061;48.524;9.040;2024-03-02T03:07:24;13.18;;;8.20;;
77864;SDS011;67061;48.524;9.040;2024-03-02T03:09:51;12.48;;;7.53;;
77864;SDS011;67061;48.524;9.040;2024-03-02T03:12:18;10.82;;;7.03;;
77864;SDS011;67061;48.524;9.040;2024-03-02T03:14:46;12.00;;;6.93;;
77864;SDS011;67061;48.524;9.040;2024-03-02T03:17:13;11.95;;;6.93;;
77864;SDS011;67061;48.524;9.040;2024-03-02T03:19:40;10.23;;;5.70;;
77864;SDS011;67061;48.524;9.040;2024-03-02T03:22:06;11.10;;;6.35;;
77864;SDS011;67061;48.524;9.040;2024-03-02T03:24:33;10.82;;;6.05;;
77864;SDS011;67061;48.524;9.040;2024-03-02T03:27:00;11.30;;;6.10;;
77864;SDS011;67061;48.524;9.040;2024-03-02T03:29:27;11.55;;;6.60;;
77864;SDS011;67061;48.524;9.040;2024-03-02T03:31:55;12.05;;;6.68;;
77864;SDS011;67061;48.524;9.040;2024-03-02T03:34:22;10.90;;;6.07;;
77864;SDS011;67061;48.524;9.040;2024-03-02T03:36:49;9.23;;;5.78;;
77864;SDS011;67061;48.524;9.040;2024-03-02T03:39:16;10.27;;;6.45;;
77864;SDS011;67061;48.524;9.040;2024-03-02T03:41:43;12.52;;;5.97;;
77864;SDS011;67061;48.524;9.040;2024-03-02T03:44:10;10.07;;;5.18;;
77864;SDS011;67061;48.524;9.040;2024-03-02T03:46:37;10.52;;;5.88;;
77864;SDS011;67061;48.524;9.040;2024-03-02T03:49:05;10.02;;;5.90;;
77864;SDS011;67061;48.524;9.040;2024-03-02T03:51:32;8.82;;;4.93;;
77864;SDS011;67061;48.524;9.040;2024-03-02T03:54:00;9.55;;;5.65;;
77864;SDS011;67061;48.524;9.040;2024-03-02T03:56:27;11.05;;;5.60;;
77864;SDS011;67061;48.524;9.040;2024-03-02T03:58:54;10.85;;;5.55;;
77864;SDS011;67061;48.524;9.040;2024-03-02T04:01:21;10.77;;;5.32;;
77864;SDS011;67061;48.524;9.040;2024-03-02T04:03:48;11.55;;;6.38;;
77864;SDS011;67061;48.524;9.040;2024-03-02T04:06:16;11.55;;;5.72;;
77864;SDS011;67061;48.524;9.040;2024-03-02T04:08:43;10.90;;;5.93;;
77864;SDS011;67061;48.524;9.040;2024-03-02T04:11:10;12.13;;;5.97;;
77864;SDS011;67061;48.524;9.040;2024-03-02T04:13:37;10.55;;;6.50;;
77864;SDS011;67061;48.524;9.040;2024-03-02T04:16:04;11.00;;;6.10;;
77864;SDS011;67061;48.524;9.040;2024-03-02T04:18:31;12.48;;;6.32;;
77864;SDS011;67061;48.524;9.040;2024-03-02T04:20:58;10.32;;;6.00;;
77864;SDS011;67061;48.524;9.040;2024-03-02T04:23:26;12.27;;;5.78;;
77864;SDS011;67061;48.524;9.040;2024-03-02T04:25:53;11.50;;;6.32;;
77864;SDS011;67061;48.524;9.040;2024-03-02T04:28:20;10.60;;;6.22;;
77864;SDS011;67061;48.524;9.040;2024-03-02T04:30:47;10.80;;;6.15;;
77864;SDS011;67061;48.524;9.040;2024-03-02T04:33:14;11.13;;;6.38;;
77864;SDS011;67061;48.524;9.040;2024-03-02T04:35:41;10.88;;;6.10;;
77864;SDS011;67061;48.524;9.040;2024-03-02T04:38:08;12.80;;;6.78;;
77864;SDS011;67061;48.524;9.040;2024-03-02T04:40:36;9.65;;;6.15;;
77864;SDS011;67061;48.524;9.040;2024-03-02T04:43:03;11.02;;;6.38;;
77864;SDS011;67061;48.524;9.040;2024-03-02T04:45:30;13.80;;;6.80;;
77864;SDS011;67061;48.524;9.040;2024-03-02T04:47:57;12.90;;;6.43;;
77864;SDS011;67061;48.524;9.040;2024-03-02T04:50:24;15.60;;;7.72;;
77864;SDS011;67061;48.524;9.040;2024-03-02T04:52:50;10.73;;;5.55;;
77864;SDS011;67061;48.524;9.040;2024-03-02T04:55:17;8.98;;;4.88;;
77864;SDS011;67061;48.524;9.040;2024-03-02T04:58:11;12.23;;;5.57;;
77864;SDS011;67061;48.524;9.040;2024-03-02T05:00:38;10.27;;;5.28;;
77864;SDS011;67061;48.524;9.040;2024-03-02T05:03:05;14.05;;;6.05;;
77864;SDS011;67061;48.524;9.040;2024-03-02T05:05:32;15.43;;;5.68;;
77864;SDS011;67061;48.524;9.040;2024-03-02T05:08:00;16.63;;;5.88;;
77864;SDS011;67061;48.524;9.040;2024-03-02T05:10:27;16.02;;;6.47;;
77864;SDS011;67061;48.524;9.040;2024-03-02T05:12:54;14.13;;;6.28;;
77864;SDS011;67061;48.524;9.040;2024-03-02T05:15:26;18.98;;;6.30;;
77864;SDS011;67061;48.524;9.040;2024-03-02T05:17:53;15.68;;;6.90;;
77864;SDS011;67061;48.524;9.040;2024-03-02T05:20:22;13.10;;;6.75;;
77864;SDS011;67061;48.524;9.040;2024-03-02T05:22:48;12.57;;;6.40;;
77864;SDS011;67061;48.524;9.040;2024-03-02T05:25:15;13.85;;;6.78;;
77864;SDS011;67061;48.524;9.040;2024-03-02T05:27:42;9.30;;;5.13;;
77864;SDS011;67061;48.524;9.040;2024-03-02T05:30:09;10.82;;;5.72;;
77864;SDS011;67061;48.524;9.040;2024-03-02T05:32:38;11.98;;;6.70;;
77864;SDS011;67061;48.524;9.040;2024-03-02T05:35:05;10.80;;;4.82;;
77864;SDS011;67061;48.524;9.040;2024-03-02T05:37:33;10.98;;;5.97;;
77864;SDS011;67061;48.524;9.040;2024-03-02T05:40:00;7.65;;;3.70;;
77864;SDS011;67061;48.524;9.040;2024-03-02T05:42:27;9.70;;;4.28;;
77864;SDS011;67061;48.524;9.040;2024-03-02T05:44:54;6.00;;;3.55;;
77864;SDS011;67061;48.524;9.040;2024-03-02T05:47:21;15.80;;;6.15;;
77864;SDS011;67061;48.524;9.040;2024-03-02T05:49:49;11.68;;;4.95;;
77864;SDS011;67061;48.524;9.040;2024-03-02T05:52:16;14.40;;;5.28;;
77864;SDS011;67061;48.524;9.040;2024-03-02T05:54:43;13.27;;;5.95;;
77864;SDS011;67061;48.524;9.040;2024-03-02T05:57:10;16.15;;;5.35;;
77864;SDS011;67061;48.524;9.040;2024-03-02T05:59:56;14.90;;;6.00;;
77864;SDS011;67061;48.524;9.040;2024-03-02T06:02:24;14.40;;;5.78;;
77864;SDS011;67061;48.524;9.040;2024-03-02T06:04:52;12.43;;;6.53;;
77864;SDS011;67061;48.524;9.040;2024-03-02T06:07:20;12.50;;;7.00;;
77864;SDS011;67061;48.524;9.040;2024-03-02T06:09:47;22.63;;;7.43;;
77864;SDS011;67061;48.524;9.040;2024-03-02T06:12:16;24.00;;;7.22;;
77864;SDS011;67061;48.524;9.040;2024-03-02T06:14:43;27.10;;;6.82;;
77864;SDS011;67061;48.524;9.040;2024-03-02T06:17:10;16.13;;;7.30;;
77864;SDS011;67061;48.524;9.040;2024-03-02T06:19:37;17.15;;;6.30;;
77864;SDS011;67061;48.524;9.040;2024-03-02T06:22:06;25.92;;;6.75;;
77864;SDS011;67061;48.524;9.040;2024-03-02T06:27:02;23.50;;;6.97;;
77864;SDS011;67061;48.524;9.040;2024-03-02T06:29:29;14.52;;;7.47;;
77864;SDS011;67061;48.524;9.040;2024-03-02T06:31:58;11.30;;;5.55;;
77864;SDS011;67061;48.524;9.040;2024-03-02T06:34:25;20.25;;;6.90;;
77864;SDS011;67061;48.524;9.040;2024-03-02T06:36:52;19.45;;;6.65;;
77864;SDS011;67061;48.524;9.040;2024-03-02T06:39:20;22.75;;;7.50;;
77864;SDS011;67061;48.524;9.040;2024-03-02T06:41:47;23.63;;;7.80;;
77864;SDS011;67061;48.524;9.040;2024-03-02T06:44:13;20.75;;;7.88;;
77864;SDS011;67061;48.524;9.040;2024-03-02T06:46:40;14.95;;;7.63;;
77864;SDS011;67061;48.524;9.040;2024-03-02T06:49:07;17.30;;;7.40;;
77864;SDS011;67061;48.524;9.040;2024-03-02T06:51:35;21.90;;;7.38;;
77864;SDS011;67061;48.524;9.040;2024-03-02T06:54:02;20.17;;;7.63;;
77864;SDS011;67061;48.524;9.040;2024-03-02T06:56:30;29.13;;;11.15;;
77864;SDS011;67061;48.524;9.040;2024-03-02T06:58:58;37.67;;;9.05;;
77864;SDS011;67061;48.524;9.040;2024-03-02T07:01:25;31.08;;;8.98;;
77864;SDS011;67061;48.524;9.040;2024-03-02T07:03:53;18.75;;;8.63;;
77864;SDS011;67061;48.524;9.040;2024-03-02T07:06:20;17.67;;;8.88;;
77864;SDS011;67061;48.524;9.040;2024-03-02T07:08:46;16.85;;;9.10;;
77864;SDS011;67061;48.524;9.040;2024-03-02T07:11:13;18.60;;;8.48;;
77864;SDS011;67061;48.524;9.040;2024-03-02T07:13:41;25.88;;;7.05;;
77864;SDS011;67061;48.524;9.040;2024-03-02T07:16:08;19.83;;;7.47;;
77864;SDS011;67061;48.524;9.040;2024-03-02T07:18:55;18.33;;;7.95;;
77864;SDS011;67061;48.524;9.040;2024-03-02T07:21:22;17.10;;;7.05;;
77864;SDS011;67061;48.524;9.040;2024-03-02T07:23:49;15.43;;;7.72;;
77864;SDS011;67061;48.524;9.040;2024-03-02T07:26:16;22.92;;;7.85;;
77864;SDS011;67061;48.524;9.040;2024-03-02T07:28:46;16.92;;;8.95;;
77864;SDS011;67061;48.524;9.040;2024-03-02T07:31:14;23.27;;;8.38;;
77864;SDS011;67061;48.524;9.040;2024-03-02T07:33:41;20.92;;;8.25;;
77864;SDS011;67061;48.524;9.040;2024-03-02T07:36:09;22.98;;;8.60;;
77864;SDS011;67061;48.524;9.040;2024-03-02T07:38:36;16.70;;;8.30;;
77864;SDS011;67061;48.524;9.040;2024-03-02T07:41:03;22.23;;;10.38;;
77864;SDS011;67061;48.524;9.040;2024-03-02T07:43:31;19.75;;;9.10;;
77864;SDS011;67061;48.524;9.040;2024-03-02T07:45:59;17.80;;;9.73;;
77864;SDS011;67061;48.524;9.040;2024-03-02T07:48:28;19.17;;;9.23;;
77864;SDS011;67061;48.524;9.040;2024-03-02T07:50:55;21.45;;;9.00;;
77864;SDS011;67061;48.524;9.040;2024-03-02T07:53:22;18.80;;;9.43;;
77864;SDS011;67061;48.524;9.040;2024-03-02T07:55:49;17.08;;;9.43;;
77864;SDS011;67061;48.524;9.040;2024-03-02T07:58:16;21.40;;;10.77;;
77864;SDS011;67061;48.524;9.040;2024-03-02T08:00:44;19.02;;;9.32;;
77864;SDS011;67061;48.524;9.040;2024-03-02T08:03:13;16.77;;;8.75;;
77864;SDS011;67061;48.524;9.040;2024-03-02T08:05:40;24.15;;;10.70;;
77864;SDS011;67061;48.524;9.040;2024-03-02T08:08:07;19.98;;;9.30;;
77864;SDS011;67061;48.524;9.040;2024-03-02T08:10:34;15.15;;;9.00;;
77864;SDS011;67061;48.524;9.040;2024-03-02T08:13:01;14.73;;;7.43;;
77864;SDS011;67061;48.524;9.040;2024-03-02T08:15:28;11.85;;;4.63;;
77864;SDS011;67061;48.524;9.040;2024-03-02T08:17:55;12.68;;;4.53;;
77864;SDS011;67061;48.524;9.040;2024-03-02T08:20:24;22.83;;;5.80;;
77864;SDS011;67061;48.524;9.040;2024-03-02T08:22:50;15.23;;;4.90;;
77864;SDS011;67061;48.524;9.040;2024-03-02T08:25:20;10.63;;;6.43;;
77864;SDS011;67061;48.524;9.040;2024-03-02T08:27:47;14.77;;;6.72;;
77864;SDS011;67061;48.524;9.040;2024-03-02T08:30:14;8.02;;;3.85;;
77864;SDS011;67061;48.524;9.040;2024-03-02T08:32:42;10.40;;;6.43;;
77864;SDS011;67061;48.524;9.040;2024-03-02T08:35:10;9.52;;;6.75;;
77864;SDS011;67061;48.524;9.040;2024-03-02T08:37:38;9.68;;;5.60;;
77864;SDS011;67061;48.524;9.040;2024-03-02T08:40:06;8.48;;;4.45;;
77864;SDS011;67061;48.524;9.040;2024-03-02T08:42:34;7.97;;;4.05;;
77864;SDS011;67061;48.524;9.040;2024-03-02T08:45:01;5.10;;;2.33;;
77864;SDS011;67061;48.524;9.040;2024-03-02T08:47:28;6.55;;;4.28;;
77864;SDS011;67061;48.524;9.040;2024-03-02T08:49:55;9.43;;;5.47;;
77864;SDS011;67061;48.524;9.040;2024-03-02T08:52:22;11.35;;;6.18;;
77864;SDS011;67061;48.524;9.040;2024-03-02T08:54:50;12.43;;;6.13;;
77864;SDS011;67061;48.524;9.040;2024-03-02T08:57:17;14.88;;;6.78;;
77864;SDS011;67061;48.524;9.040;2024-03-02T08:59:44;12.43;;;6.88;;
77864;SDS011;67061;48.524;9.040;2024-03-02T09:02:11;10.90;;;6.65;;
77864;SDS011;67061;48.524;9.040;2024-03-02T09:04:38;11.30;;;7.07;;
77864;SDS011;67061;48.524;9.040;2024-03-02T09:07:05;10.77;;;6.70;;
77864;SDS011;67061;48.524;9.040;2024-03-02T09:09:32;13.32;;;7.85;;
77864;SDS011;67061;48.524;9.040;2024-03-02T09:12:01;11.00;;;7.03;;
77864;SDS011;67061;48.524;9.040;2024-03-02T09:14:28;14.18;;;8.05;;
77864;SDS011;67061;48.524;9.040;2024-03-02T09:16:55;13.88;;;8.77;;
77864;SDS011;67061;48.524;9.040;2024-03-02T09:19:22;15.32;;;8.70;;
77864;SDS011;67061;48.524;9.040;2024-03-02T09:21:49;14.07;;;8.35;;
77864;SDS011;67061;48.524;9.040;2024-03-02T09:24:16;14.48;;;8.50;;
77864;SDS011;67061;48.524;9.040;2024-03-02T09:26:42;14.85;;;8.60;;
77864;SDS011;67061;48.524;9.040;2024-03-02T09:29:11;14.75;;;8.85;;
77864;SDS011;67061;48.524;9.040;2024-03-02T09:31:39;13.40;;;7.75;;
77864;SDS011;67061;48.524;9.040;2024-03-02T09:34:06;13.55;;;7.35;;
77864;SDS011;67061;48.524;9.040;2024-03-02T09:36:33;11.20;;;6.78;;
77864;SDS011;67061;48.524;9.040;2024-03-02T09:39:00;10.75;;;6.43;;
77864;SDS011;67061;48.524;9.040;2024-03-02T09:41:29;12.05;;;6.63;;
77864;SDS011;67061;48.524;9.040;2024-03-02T09:43:55;10.40;;;6.50;;
77864;SDS011;67061;48.524;9.040;2024-03-02T09:46:25;9.60;;;5.85;;
77864;SDS011;67061;48.524;9.040;2024-03-02T09:48:52;9.55;;;5.53;;
77864;SDS011;67061;48.524;9.040;2024-03-02T09:51:19;10.07;;;5.93;;
77864;SDS011;67061;48.524;9.040;2024-03-02T09:53:46;8.18;;;5.03;;
77864;SDS011;67061;48.524;9.040;2024-03-02T09:56:14;7.40;;;4.50;;
77864;SDS011;67061;48.524;9.040;2024-03-02T09:58:43;9.32;;;4.47;;
77864;SDS011;67061;48.524;9.040;2024-03-02T10:01:10;9.07;;;5.05;;
77864;SDS011;67061;48.524;9.040;2024-03-02T10:03:38;8.98;;;4.78;;
77864;SDS011;67061;48.524;9.040;2024-03-02T10:06:21;8.38;;;5.00;;
77864;SDS011;67061;48.524;9.040;2024-03-02T10:08:49;10.05;;;4.57;;
77864;SDS011;67061;48.524;9.040;2024-03-02T10:11:25;8.85;;;5.97;;
77864;SDS011;67061;48.524;9.040;2024-03-02T10:14:06;8.00;;;4.43;;
77864;SDS011;67061;48.524;9.040;2024-03-02T10:16:34;6.82;;;3.90;;
77864;SDS011;67061;48.524;9.040;2024-03-02T10:21:52;5.55;;;3.33;;
77864;SDS011;67061;48.524;9.040;2024-03-02T10:24:20;7.45;;;4.40;;
77864;SDS011;67061;48.524;9.040;2024-03-02T10:26:48;7.18;;;4.38;;
77864;SDS011;67061;48.524;9.040;2024-03-02T10:29:16;6.43;;;3.63;;
77864;SDS011;67061;48.524;9.040;2024-03-02T10:31:43;6.70;;;4.20;;
77864;SDS011;67061;48.524;9.040;2024-03-02T10:34:12;7.00;;;3.97;;
77864;SDS011;67061;48.524;9.040;2024-03-02T10:39:10;7.85;;;4.15;;
77864;SDS011;67061;48.524;9.040;2024-03-02T10:41:40;7.70;;;3.60;;
77864;SDS011;67061;48.524;9.040;2024-03-02T10:44:07;6.72;;;4.38;;
77864;SDS011;67061;48.524;9.040;2024-03-02T10:46:36;6.93;;;3.88;;
77864;SDS011;67061;48.524;9.040;2024-03-02T10:49:04;7.00;;;3.80;;
77864;SDS011;67061;48.524;9.040;2024-03-02T10:51:32;6.03;;;3.38;;
77864;SDS011;67061;48.524;9.040;2024-03-02T10:54:02;6.40;;;3.80;;
77864;SDS011;67061;48.524;9.040;2024-03-02T10:56:31;6.43;;;3.83;;
77864;SDS011;67061;48.524;9.040;2024-03-02T10:59:01;5.95;;;3.38;;
77864;SDS011;67061;48.524;9.040;2024-03-02T11:01:30;6.40;;;3.63;;
77864;SDS011;67061;48.524;9.040;2024-03-02T11:06:26;5.15;;;3.30;;
77864;SDS011;67061;48.524;9.040;2024-03-02T11:08:57;5.88;;;3.13;;
77864;SDS011;67061;48.524;9.040;2024-03-02T11:11:31;4.78;;;2.47;;
77864;SDS011;67061;48.524;9.040;2024-03-02T11:14:01;4.10;;;2.20;;
77864;SDS011;67061;48.524;9.040;2024-03-02T11:16:34;5.40;;;2.22;;
77864;SDS011;67061;48.524;9.040;2024-03-02T11:19:03;5.10;;;2.60;;
77864;SDS011;67061;48.524;9.040;2024-03-02T11:23:58;5.85;;;3.20;;
77864;SDS011;67061;48.524;9.040;2024-03-02T11:27:14;4.47;;;2.30;;
77864;SDS011;67061;48.524;9.040;2024-03-02T11:30:11;3.60;;;1.90;;
77864;SDS011;67061;48.524;9.040;2024-03-02T11:33:22;4.47;;;1.95;;
77864;SDS011;67061;48.524;9.040;2024-03-02T11:35:52;3.17;;;1.90;;
77864;SDS011;67061;48.524;9.040;2024-03-02T11:38:19;4.03;;;1.60;;
77864;SDS011;67061;48.524;9.040;2024-03-02T11:40:47;3.53;;;1.98;;
77864;SDS011;67061;48.524;9.040;2024-03-02T11:43:15;3.40;;;1.40;;
77864;SDS011;67061;48.524;9.040;2024-03-02T11:45:43;3.00;;;1.70;;
77864;SDS011;67061;48.524;9.040;2024-03-02T11:48:11;3.30;;;1.65;;
77864;SDS011;67061;48.524;9.040;2024-03-02T11:50:40;2.53;;;1.00;;
77864;SDS011;67061;48.524;9.040;2024-03-02T11:53:09;2.47;;;1.20;;
77864;SDS011;67061;48.524;9.040;2024-03-02T11:55:38;2.47;;;1.40;;
77864;SDS011;67061;48.524;9.040;2024-03-02T11:58:05;2.38;;;1.38;;
77864;SDS011;67061;48.524;9.040;2024-03-02T12:00:34;3.13;;;1.63;;
77864;SDS011;67061;48.524;9.040;2024-03-02T12:03:01;2.40;;;1.35;;
77864;SDS011;67061;48.524;9.040;2024-03-02T12:05:30;2.97;;;1.83;;
77864;SDS011;67061;48.524;9.040;2024-03-02T12:07:58;3.42;;;1.48;;
77864;SDS011;67061;48.524;9.040;2024-03-02T12:10:25;3.85;;;0.93;;
77864;SDS011;67061;48.524;9.040;2024-03-02T12:12:56;2.25;;;1.13;;
77864;SDS011;67061;48.524;9.040;2024-03-02T12:15:24;2.05;;;1.00;;
77864;SDS011;67061;48.524;9.040;2024-03-02T12:17:54;3.58;;;1.00;;
77864;SDS011;67061;48.524;9.040;2024-03-02T12:20:22;2.78;;;0.82;;
77864;SDS011;67061;48.524;9.040;2024-03-02T12:22:49;1.90;;;0.80;;
77864;SDS011;67061;48.524;9.040;2024-03-02T12:25:18;2.47;;;0.90;;
77864;SDS011;67061;48.524;9.040;2024-03-02T12:27:46;2.50;;;1.00;;
77864;SDS011;67061;48.524;9.040;2024-03-02T12:30:16;2.13;;;0.85;;
77864;SDS011;67061;48.524;9.040;2024-03-02T12:32:43;2.65;;;0.80;;
77864;SDS011;67061;48.524;9.040;2024-03-02T12:35:12;2.38;;;1.20;;
77864;SDS011;67061;48.524;9.040;2024-03-02T12:37:43;2.03;;;1.02;;
77864;SDS011;67061;48.524;9.040;2024-03-02T12:40:11;2.47;;;1.08;;
77864;SDS011;67061;48.524;9.040;2024-03-02T12:42:39;2.17;;;1.10;;
77864;SDS011;67061;48.524;9.040;2024-03-02T12:45:07;2.28;;;1.00;;
77864;SDS011;67061;48.524;9.040;2024-03-02T12:47:34;2.28;;;1.08;;
77864;SDS011;67061;48.524;9.040;2024-03-02T12:50:03;3.45;;;0.95;;
77864;SDS011;67061;48.524;9.040;2024-03-02T12:52:32;2.30;;;1.15;;
77864;SDS011;67061;48.524;9.040;2024-03-02T12:57:27;3.40;;;0.93;;
77864;SDS011;67061;48.524;9.040;2024-03-02T12:59:58;2.03;;;0.77;;
77864;SDS011;67061;48.524;9.040;2024-03-02T13:02:27;2.10;;;0.80;;
77864;SDS011;67061;48.524;9.040;2024-03-02T13:04:54;2.05;;;1.05;;
77864;SDS011;67061;48.524;9.040;2024-03-02T13:07:22;1.90;;;0.90;;
77864;SDS011;67061;48.524;9.040;2024-03-02T13:09:51;2.78;;;1.15;;
77864;SDS011;67061;48.524;9.040;2024-03-02T13:12:20;2.28;;;1.30;;
77864;SDS011;67061;48.524;9.040;2024-03-02T13:14:48;2.75;;;1.20;;
77864;SDS011;67061;48.524;9.040;2024-03-02T13:17:17;3.03;;;1.10;;
77864;SDS011;67061;48.524;9.040;2024-03-02T13:19:50;2.67;;;1.08;;
77864;SDS011;67061;48.524;9.040;2024-03-02T13:22:18;1.90;;;1.00;;
77864;SDS011;67061;48.524;9.040;2024-03-02T13:24:46;2.60;;;1.20;;
77864;SDS011;67061;48.524;9.040;2024-03-02T13:27:14;2.28;;;1.20;;
77864;SDS011;67061;48.524;9.040;2024-03-02T13:29:44;2.40;;;1.45;;
77864;SDS011;67061;48.524;9.040;2024-03-02T13:32:11;2.03;;;0.88;;
77864;SDS011;67061;48.524;9.040;2024-03-02T13:34:38;2.10;;;1.10;;
77864;SDS011;67061;48.524;9.040;2024-03-02T13:37:05;1.92;;;0.90;;
77864;SDS011;67061;48.524;9.040;2024-03-02T13:39:32;2.65;;;1.02;;
77864;SDS011;67061;48.524;9.040;2024-03-02T13:42:04;2.45;;;1.15;;
77864;SDS011;67061;48.524;9.040;2024-03-02T13:44:34;2.38;;;1.27;;
77864;SDS011;67061;48.524;9.040;2024-03-02T13:47:02;2.22;;;1.05;;
77864;SDS011;67061;48.524;9.040;2024-03-02T13:49:30;2.55;;;1.23;;
77864;SDS011;67061;48.524;9.040;2024-03-02T13:52:01;2.95;;;1.40;;
77864;SDS011;67061;48.524;9.040;2024-03-02T13:54:36;2.22;;;1.05;;
77864;SDS011;67061;48.524;9.040;2024-03-02T13:57:04;2.95;;;1.50;;
77864;SDS011;67061;48.524;9.040;2024-03-02T13:59:31;2.08;;;1.00;;
77864;SDS011;67061;48.524;9.040;2024-03-02T14:02:00;2.40;;;1.20;;
77864;SDS011;67061;48.524;9.040;2024-03-02T14:04:27;2.30;;;0.90;;
77864;SDS011;67061;48.524;9.040;2024-03-02T14:06:54;2.00;;;0.80;;
77864;SDS011;67061;48.524;9.040;2024-03-02T14:09:21;2.30;;;0.88;;
77864;SDS011;67061;48.524;9.040;2024-03-02T14:11:49;3.25;;;1.05;;
77864;SDS011;67061;48.524;9.040;2024-03-02T14:14:16;2.17;;;0.90;;
77864;SDS011;67061;48.524;9.040;2024-03-02T14:16:43;2.15;;;0.45;;
77864;SDS011;67061;48.524;9.040;2024-03-02T14:19:12;1.65;;;0.68;;
77864;SDS011;67061;48.524;9.040;2024-03-02T14:21:39;2.10;;;0.98;;
77864;SDS011;67061;48.524;9.040;2024-03-02T14:24:06;2.13;;;1.00;;
77864;SDS011;67061;48.524;9.040;2024-03-02T14:26:33;1.60;;;0.50;;
77864;SDS011;67061;48.524;9.040;2024-03-02T14:29:01;1.98;;;0.70;;
77864;SDS011;67061;48.524;9.040;2024-03-02T14:31:28;2.40;;;0.90;;
77864;SDS011;67061;48.524;9.040;2024-03-02T14:33:56;2.03;;;0.68;;
77864;SDS011;67061;48.524;9.040;2024-03-02T14:36:24;2.30;;;1.10;;
77864;SDS011;67061;48.524;9.040;2024-03-02T14:38:52;1.52;;;0.63;;
77864;SDS011;67061;48.524;9.040;2024-03-02T14:41:20;1.70;;;0.75;;
77864;SDS011;67061;48.524;9.040;2024-03-02T14:43:46;1.38;;;0.60;;
77864;SDS011;67061;48.524;9.040;2024-03-02T14:46:14;2.42;;;0.43;;
77864;SDS011;67061;48.524;9.040;2024-03-02T14:48:43;2.22;;;0.43;;
77864;SDS011;67061;48.524;9.040;2024-03-02T14:51:11;1.40;;;0.50;;
77864;SDS011;67061;48.524;9.040;2024-03-02T14:53:40;1.25;;;0.40;;
77864;SDS011;67061;48.524;9.040;2024-03-02T14:56:07;1.95;;;0.50;;
77864;SDS011;67061;48.524;9.040;2024-03-02T14:58:34;1.95;;;0.40;;
77864;SDS011;67061;48.524;9.040;2024-03-02T15:01:02;2.33;;;0.50;;
77864;SDS011;67061;48.524;9.040;2024-03-02T15:03:29;1.70;;;0.60;;